sensor_id;sensor_type;location;lat;lon;timestamp;temperature;humidity
13482;DHT22;6813;60.352;15.746;2023-05-07T00:00:03;4.50;89.70
13482;DHT22;6813;60.352;15.746;2023-05-07T00:02:32;4.60;89.40
13482;DHT22;6813;60.352;15.746;2023-05-07T00:04:58;4.70;89.10
13482;DHT22;6813;60.352;15.746;2023-05-07T00:07:23;4.90;87.90
13482;DHT22;6813;60.352;15.746;2023-05-07T00:09:49;5.10;86.10
13482;DHT22;6813;60.352;15.746;2023-05-07T00:12:15;5.30;84.80
13482;DHT22;6813;60.352;15.746;2023-05-07T00:14:41;5.40;84.00
13482;DHT22;6813;60.352;15.746;2023-05-07T00:17:07;5.50;83.50
13482;DHT22;6813;60.352;15.746;2023-05-07T00:19:32;5.60;83.50
13482;DHT22;6813;60.352;15.746;2023-05-07T00:21:58;5.70;82.90
13482;DHT22;6813;60.352;15.746;2023-05-07T00:24:24;5.70;82.30
13482;DHT22;6813;60.352;15.746;2023-05-07T00:26:50;5.70;82.30
13482;DHT22;6813;60.352;15.746;2023-05-07T00:29:16;5.60;82.30
13482;DHT22;6813;60.352;15.746;2023-05-07T00:31:41;5.60;82.20
13482;DHT22;6813;60.352;15.746;2023-05-07T00:34:07;5.30;83.70
13482;DHT22;6813;60.352;15.746;2023-05-07T00:36:33;5.40;83.50
13482;DHT22;6813;60.352;15.746;2023-05-07T00:39:00;5.00;85.40
13482;DHT22;6813;60.352;15.746;2023-05-07T00:41:26;5.00;85.00
13482;DHT22;6813;60.352;15.746;2023-05-07T00:43:52;5.00;84.90
13482;DHT22;6813;60.352;15.746;2023-05-07T00:46:20;4.80;86.00
13482;DHT22;6813;60.352;15.746;2023-05-07T00:48:46;4.80;85.30
13482;DHT22;6813;60.352;15.746;2023-05-07T00:51:12;4.50;89.00
13482;DHT22;6813;60.352;15.746;2023-05-07T00:53:38;4.50;90.30
13482;DHT22;6813;60.352;15.746;2023-05-07T00:56:04;4.10;91.50
13482;DHT22;6813;60.352;15.746;2023-05-07T00:58:32;4.20;90.80
13482;DHT22;6813;60.352;15.746;2023-05-07T01:00:58;4.50;89.80
13482;DHT22;6813;60.352;15.746;2023-05-07T01:03:23;4.70;88.00
13482;DHT22;6813;60.352;15.746;2023-05-07T01:05:50;5.00;86.70
13482;DHT22;6813;60.352;15.746;2023-05-07T01:08:17;5.30;86.20
13482;DHT22;6813;60.352;15.746;2023-05-07T01:10:43;5.50;85.10
13482;DHT22;6813;60.352;15.746;2023-05-07T01:13:10;5.60;85.10
13482;DHT22;6813;60.352;15.746;2023-05-07T01:15:37;5.70;84.00
13482;DHT22;6813;60.352;15.746;2023-05-07T01:18:03;5.80;84.30
13482;DHT22;6813;60.352;15.746;2023-05-07T01:20:29;6.00;83.80
13482;DHT22;6813;60.352;15.746;2023-05-07T01:22:56;6.00;83.30
13482;DHT22;6813;60.352;15.746;2023-05-07T01:25:22;6.00;84.00
13482;DHT22;6813;60.352;15.746;2023-05-07T01:27:48;6.00;83.60
13482;DHT22;6813;60.352;15.746;2023-05-07T01:30:14;6.20;82.40
13482;DHT22;6813;60.352;15.746;2023-05-07T01:32:53;6.20;83.70
13482;DHT22;6813;60.352;15.746;2023-05-07T01:35:27;6.30;82.60
13482;DHT22;6813;60.352;15.746;2023-05-07T01:37:54;6.30;82.90
13482;DHT22;6813;60.352;15.746;2023-05-07T01:40:20;6.30;82.30
13482;DHT22;6813;60.352;15.746;2023-05-07T01:42:47;6.30;81.50
13482;DHT22;6813;60.352;15.746;2023-05-07T01:45:14;6.30;83.00
13482;DHT22;6813;60.352;15.746;2023-05-07T01:47:40;6.30;81.90
13482;DHT22;6813;60.352;15.746;2023-05-07T01:50:07;6.30;82.30
13482;DHT22;6813;60.352;15.746;2023-05-07T01:52:39;6.30;82.90
13482;DHT22;6813;60.352;15.746;2023-05-07T01:55:05;6.40;81.90
13482;DHT22;6813;60.352;15.746;2023-05-07T01:57:31;6.30;81.30
13482;DHT22;6813;60.352;15.746;2023-05-07T01:59:57;6.40;81.60
13482;DHT22;6813;60.352;15.746;2023-05-07T02:02:22;6.30;81.90
13482;DHT22;6813;60.352;15.746;2023-05-07T02:04:48;6.30;81.30
13482;DHT22;6813;60.352;15.746;2023-05-07T02:07:14;6.20;81.40
13482;DHT22;6813;60.352;15.746;2023-05-07T02:09:39;6.10;82.50
13482;DHT22;6813;60.352;15.746;2023-05-07T02:12:05;5.90;83.10
13482;DHT22;6813;60.352;15.746;2023-05-07T02:14:31;5.80;83.80
13482;DHT22;6813;60.352;15.746;2023-05-07T02:16:56;5.70;83.60
13482;DHT22;6813;60.352;15.746;2023-05-07T02:19:22;5.70;83.90
13482;DHT22;6813;60.352;15.746;2023-05-07T02:21:48;5.80;84.10
13482;DHT22;6813;60.352;15.746;2023-05-07T02:24:14;5.80;83.00
13482;DHT22;6813;60.352;15.746;2023-05-07T02:26:42;5.80;83.80
13482;DHT22;6813;60.352;15.746;2023-05-07T02:29:08;5.70;84.20
13482;DHT22;6813;60.352;15.746;2023-05-07T02:31:34;5.70;84.10
13482;DHT22;6813;60.352;15.746;2023-05-07T02:34:00;5.70;83.70
13482;DHT22;6813;60.352;15.746;2023-05-07T02:36:25;5.70;83.60
13482;DHT22;6813;60.352;15.746;2023-05-07T02:38:52;5.80;83.60
13482;DHT22;6813;60.352;15.746;2023-05-07T02:41:18;5.80;83.90
13482;DHT22;6813;60.352;15.746;2023-05-07T02:43:43;5.80;83.30
13482;DHT22;6813;60.352;15.746;2023-05-07T02:46:09;5.90;82.20
13482;DHT22;6813;60.352;15.746;2023-05-07T02:48:35;6.10;81.10
13482;DHT22;6813;60.352;15.746;2023-05-07T02:51:01;6.20;82.20
13482;DHT22;6813;60.352;15.746;2023-05-07T02:53:27;6.20;81.80
13482;DHT22;6813;60.352;15.746;2023-05-07T02:55:59;6.30;81.30
13482;DHT22;6813;60.352;15.746;2023-05-07T02:58:25;6.30;81.30
13482;DHT22;6813;60.352;15.746;2023-05-07T03:00:51;6.30;81.30
13482;DHT22;6813;60.352;15.746;2023-05-07T03:03:16;6.30;81.40
13482;DHT22;6813;60.352;15.746;2023-05-07T03:05:42;6.30;81.90
13482;DHT22;6813;60.352;15.746;2023-05-07T03:08:08;6.20;82.30
13482;DHT22;6813;60.352;15.746;2023-05-07T03:10:35;6.20;83.40
13482;DHT22;6813;60.352;15.746;2023-05-07T03:13:01;6.00;84.00
13482;DHT22;6813;60.352;15.746;2023-05-07T03:15:27;6.00;83.40
13482;DHT22;6813;60.352;15.746;2023-05-07T03:17:53;5.90;85.00
13482;DHT22;6813;60.352;15.746;2023-05-07T03:20:18;5.90;84.80
13482;DHT22;6813;60.352;15.746;2023-05-07T03:22:44;5.80;85.20
13482;DHT22;6813;60.352;15.746;2023-05-07T03:25:10;5.80;84.40
13482;DHT22;6813;60.352;15.746;2023-05-07T03:27:36;5.80;84.70
13482;DHT22;6813;60.352;15.746;2023-05-07T03:30:02;5.80;84.10
13482;DHT22;6813;60.352;15.746;2023-05-07T03:32:28;5.70;85.50
13482;DHT22;6813;60.352;15.746;2023-05-07T03:34:53;5.60;86.50
13482;DHT22;6813;60.352;15.746;2023-05-07T03:37:19;5.50;86.40
13482;DHT22;6813;60.352;15.746;2023-05-07T03:39:45;5.60;85.00
13482;DHT22;6813;60.352;15.746;2023-05-07T03:42:11;5.60;86.70
13482;DHT22;6813;60.352;15.746;2023-05-07T03:44:36;5.60;86.10
13482;DHT22;6813;60.352;15.746;2023-05-07T03:47:03;5.50;88.50
13482;DHT22;6813;60.352;15.746;2023-05-07T03:49:29;5.50;88.10
13482;DHT22;6813;60.352;15.746;2023-05-07T03:51:54;5.50;88.80
13482;DHT22;6813;60.352;15.746;2023-05-07T03:54:21;5.30;89.80
13482;DHT22;6813;60.352;15.746;2023-05-07T03:56:46;5.40;89.60
13482;DHT22;6813;60.352;15.746;2023-05-07T03:59:13;5.30;89.90
13482;DHT22;6813;60.352;15.746;2023-05-07T04:01:39;5.10;90.30
13482;DHT22;6813;60.352;15.746;2023-05-07T04:04:05;5.00;90.80
13482;DHT22;6813;60.352;15.746;2023-05-07T04:06:31;5.00;90.90
13482;DHT22;6813;60.352;15.746;2023-05-07T04:08:57;5.00;91.30
13482;DHT22;6813;60.352;15.746;2023-05-07T04:11:23;4.90;91.60
13482;DHT22;6813;60.352;15.746;2023-05-07T04:13:48;4.80;92.20
13482;DHT22;6813;60.352;15.746;2023-05-07T04:16:15;4.70;92.70
13482;DHT22;6813;60.352;15.746;2023-05-07T04:18:41;4.60;93.20
13482;DHT22;6813;60.352;15.746;2023-05-07T04:21:16;4.60;93.50
13482;DHT22;6813;60.352;15.746;2023-05-07T04:23:42;4.80;93.70
13482;DHT22;6813;60.352;15.746;2023-05-07T04:26:08;5.00;92.80
13482;DHT22;6813;60.352;15.746;2023-05-07T04:28:34;5.10;93.50
13482;DHT22;6813;60.352;15.746;2023-05-07T04:31:00;5.40;92.90
13482;DHT22;6813;60.352;15.746;2023-05-07T04:33:26;5.60;92.40
13482;DHT22;6813;60.352;15.746;2023-05-07T04:35:51;5.80;91.80
13482;DHT22;6813;60.352;15.746;2023-05-07T04:38:17;6.10;91.20
13482;DHT22;6813;60.352;15.746;2023-05-07T04:40:44;6.40;91.90
13482;DHT22;6813;60.352;15.746;2023-05-07T04:43:09;6.70;91.30
13482;DHT22;6813;60.352;15.746;2023-05-07T04:45:36;7.10;90.30
13482;DHT22;6813;60.352;15.746;2023-05-07T04:48:01;7.40;90.10
13482;DHT22;6813;60.352;15.746;2023-05-07T04:50:27;7.70;89.80
13482;DHT22;6813;60.352;15.746;2023-05-07T04:52:53;8.00;89.30
13482;DHT22;6813;60.352;15.746;2023-05-07T04:55:19;8.30;89.40
13482;DHT22;6813;60.352;15.746;2023-05-07T04:57:44;8.70;87.70
13482;DHT22;6813;60.352;15.746;2023-05-07T05:00:11;9.20;87.20
13482;DHT22;6813;60.352;15.746;2023-05-07T05:02:40;9.30;84.20
13482;DHT22;6813;60.352;15.746;2023-05-07T05:05:06;9.40;85.10
13482;DHT22;6813;60.352;15.746;2023-05-07T05:07:32;9.60;83.50
13482;DHT22;6813;60.352;15.746;2023-05-07T05:09:58;9.80;83.30
13482;DHT22;6813;60.352;15.746;2023-05-07T05:12:25;10.10;82.30
13482;DHT22;6813;60.352;15.746;2023-05-07T05:14:51;10.30;80.00
13482;DHT22;6813;60.352;15.746;2023-05-07T05:17:16;10.30;80.70
13482;DHT22;6813;60.352;15.746;2023-05-07T05:19:42;10.40;80.50
13482;DHT22;6813;60.352;15.746;2023-05-07T05:22:07;10.80;82.50
13482;DHT22;6813;60.352;15.746;2023-05-07T05:24:33;11.20;79.90
13482;DHT22;6813;60.352;15.746;2023-05-07T05:26:59;11.30;75.90
13482;DHT22;6813;60.352;15.746;2023-05-07T05:29:28;11.50;75.90
13482;DHT22;6813;60.352;15.746;2023-05-07T05:31:53;11.70;72.80
13482;DHT22;6813;60.352;15.746;2023-05-07T05:34:19;11.90;72.30
13482;DHT22;6813;60.352;15.746;2023-05-07T05:36:45;11.90;72.00
13482;DHT22;6813;60.352;15.746;2023-05-07T05:39:11;12.00;71.70
13482;DHT22;6813;60.352;15.746;2023-05-07T05:41:37;12.30;72.80
13482;DHT22;6813;60.352;15.746;2023-05-07T05:44:02;12.50;74.10
13482;DHT22;6813;60.352;15.746;2023-05-07T05:46:28;12.80;73.00
13482;DHT22;6813;60.352;15.746;2023-05-07T05:48:54;12.90;71.90
13482;DHT22;6813;60.352;15.746;2023-05-07T05:51:21;13.10;71.00
13482;DHT22;6813;60.352;15.746;2023-05-07T05:53:46;13.20;70.50
13482;DHT22;6813;60.352;15.746;2023-05-07T05:56:12;13.10;68.70
13482;DHT22;6813;60.352;15.746;2023-05-07T05:58:38;13.40;70.80
13482;DHT22;6813;60.352;15.746;2023-05-07T06:01:04;13.60;70.40
13482;DHT22;6813;60.352;15.746;2023-05-07T06:03:30;13.80;68.60
13482;DHT22;6813;60.352;15.746;2023-05-07T06:05:57;14.00;69.30
13482;DHT22;6813;60.352;15.746;2023-05-07T06:08:23;14.40;68.50
13482;DHT22;6813;60.352;15.746;2023-05-07T06:10:49;14.50;65.10
13482;DHT22;6813;60.352;15.746;2023-05-07T06:13:15;14.40;65.40
13482;DHT22;6813;60.352;15.746;2023-05-07T06:15:41;14.50;65.90
13482;DHT22;6813;60.352;15.746;2023-05-07T06:18:06;14.50;64.50
13482;DHT22;6813;60.352;15.746;2023-05-07T06:20:32;14.70;64.60
13482;DHT22;6813;60.352;15.746;2023-05-07T06:22:58;14.70;63.60
13482;DHT22;6813;60.352;15.746;2023-05-07T06:25:23;14.90;62.30
13482;DHT22;6813;60.352;15.746;2023-05-07T06:27:49;15.00;62.00
13482;DHT22;6813;60.352;15.746;2023-05-07T06:30:15;15.10;62.40
13482;DHT22;6813;60.352;15.746;2023-05-07T06:32:41;15.30;62.20
13482;DHT22;6813;60.352;15.746;2023-05-07T06:35:06;15.40;62.00
13482;DHT22;6813;60.352;15.746;2023-05-07T06:37:32;15.40;61.90
13482;DHT22;6813;60.352;15.746;2023-05-07T06:39:58;15.30;61.40
13482;DHT22;6813;60.352;15.746;2023-05-07T06:42:24;15.20;63.20
13482;DHT22;6813;60.352;15.746;2023-05-07T06:44:49;15.40;61.10
13482;DHT22;6813;60.352;15.746;2023-05-07T06:47:15;15.60;60.90
13482;DHT22;6813;60.352;15.746;2023-05-07T06:49:41;15.70;62.20
13482;DHT22;6813;60.352;15.746;2023-05-07T06:52:06;16.20;63.10
13482;DHT22;6813;60.352;15.746;2023-05-07T06:54:32;16.40;60.40
13482;DHT22;6813;60.352;15.746;2023-05-07T06:56:58;16.60;61.50
13482;DHT22;6813;60.352;15.746;2023-05-07T06:59:24;16.70;58.20
13482;DHT22;6813;60.352;15.746;2023-05-07T07:01:49;16.80;58.50
13482;DHT22;6813;60.352;15.746;2023-05-07T07:04:15;16.80;58.50
13482;DHT22;6813;60.352;15.746;2023-05-07T07:06:41;16.80;57.90
13482;DHT22;6813;60.352;15.746;2023-05-07T07:09:07;16.90;57.90
13482;DHT22;6813;60.352;15.746;2023-05-07T07:11:32;16.60;59.00
13482;DHT22;6813;60.352;15.746;2023-05-07T07:13:58;16.80;58.30
13482;DHT22;6813;60.352;15.746;2023-05-07T07:16:24;17.00;57.90
13482;DHT22;6813;60.352;15.746;2023-05-07T07:18:50;17.40;57.40
13482;DHT22;6813;60.352;15.746;2023-05-07T07:21:16;17.50;58.20
13482;DHT22;6813;60.352;15.746;2023-05-07T07:23:42;17.60;57.10
13482;DHT22;6813;60.352;15.746;2023-05-07T07:26:08;17.20;54.90
13482;DHT22;6813;60.352;15.746;2023-05-07T07:28:34;17.30;56.80
13482;DHT22;6813;60.352;15.746;2023-05-07T07:30:59;17.60;58.10
13482;DHT22;6813;60.352;15.746;2023-05-07T07:33:25;17.90;56.70
13482;DHT22;6813;60.352;15.746;2023-05-07T07:35:51;18.00;53.60
13482;DHT22;6813;60.352;15.746;2023-05-07T07:38:16;17.90;55.30
13482;DHT22;6813;60.352;15.746;2023-05-07T07:40:42;17.80;55.40
13482;DHT22;6813;60.352;15.746;2023-05-07T07:43:09;17.70;53.00
13482;DHT22;6813;60.352;15.746;2023-05-07T07:45:35;17.80;55.20
13482;DHT22;6813;60.352;15.746;2023-05-07T07:48:00;18.10;55.50
13482;DHT22;6813;60.352;15.746;2023-05-07T07:50:26;18.20;55.30
13482;DHT22;6813;60.352;15.746;2023-05-07T07:52:52;18.30;55.30
13482;DHT22;6813;60.352;15.746;2023-05-07T07:55:20;17.80;53.20
13482;DHT22;6813;60.352;15.746;2023-05-07T07:57:48;17.90;51.10
13482;DHT22;6813;60.352;15.746;2023-05-07T08:00:15;17.60;52.70
13482;DHT22;6813;60.352;15.746;2023-05-07T08:02:41;17.80;54.70
13482;DHT22;6813;60.352;15.746;2023-05-07T08:05:08;17.90;51.40
13482;DHT22;6813;60.352;15.746;2023-05-07T08:07:33;18.10;53.70
13482;DHT22;6813;60.352;15.746;2023-05-07T08:09:59;18.30;53.70
13482;DHT22;6813;60.352;15.746;2023-05-07T08:12:25;18.10;52.80
13482;DHT22;6813;60.352;15.746;2023-05-07T08:14:51;18.20;51.40
13482;DHT22;6813;60.352;15.746;2023-05-07T08:17:16;17.50;50.40
13482;DHT22;6813;60.352;15.746;2023-05-07T08:19:42;17.60;50.40
13482;DHT22;6813;60.352;15.746;2023-05-07T08:22:09;17.80;51.80
13482;DHT22;6813;60.352;15.746;2023-05-07T08:24:36;18.10;53.60
13482;DHT22;6813;60.352;15.746;2023-05-07T08:27:02;18.30;52.00
13482;DHT22;6813;60.352;15.746;2023-05-07T08:29:27;18.50;52.30
13482;DHT22;6813;60.352;15.746;2023-05-07T08:31:53;18.50;52.30
13482;DHT22;6813;60.352;15.746;2023-05-07T08:34:19;18.70;50.70
13482;DHT22;6813;60.352;15.746;2023-05-07T08:36:45;18.60;52.30
13482;DHT22;6813;60.352;15.746;2023-05-07T08:39:15;18.60;51.50
13482;DHT22;6813;60.352;15.746;2023-05-07T08:41:45;18.40;49.00
13482;DHT22;6813;60.352;15.746;2023-05-07T08:44:14;17.90;51.00
13482;DHT22;6813;60.352;15.746;2023-05-07T08:46:41;18.30;53.60
13482;DHT22;6813;60.352;15.746;2023-05-07T08:49:08;18.70;52.00
13482;DHT22;6813;60.352;15.746;2023-05-07T08:51:34;18.60;51.40
13482;DHT22;6813;60.352;15.746;2023-05-07T08:54:01;18.40;51.80
13482;DHT22;6813;60.352;15.746;2023-05-07T08:56:27;17.80;49.20
13482;DHT22;6813;60.352;15.746;2023-05-07T08:58:53;17.40;48.60
13482;DHT22;6813;60.352;15.746;2023-05-07T09:01:22;17.60;51.60
13482;DHT22;6813;60.352;15.746;2023-05-07T09:03:49;17.60;49.70
13482;DHT22;6813;60.352;15.746;2023-05-07T09:06:15;18.10;50.90
13482;DHT22;6813;60.352;15.746;2023-05-07T09:08:43;18.30;50.00
13482;DHT22;6813;60.352;15.746;2023-05-07T09:11:09;17.90;47.50
13482;DHT22;6813;60.352;15.746;2023-05-07T09:13:37;17.90;50.40
13482;DHT22;6813;60.352;15.746;2023-05-07T09:16:15;17.70;49.10
13482;DHT22;6813;60.352;15.746;2023-05-07T09:18:44;17.90;51.80
13482;DHT22;6813;60.352;15.746;2023-05-07T09:21:15;18.20;50.50
13482;DHT22;6813;60.352;15.746;2023-05-07T09:23:41;18.10;51.60
13482;DHT22;6813;60.352;15.746;2023-05-07T09:26:07;18.40;51.60
13482;DHT22;6813;60.352;15.746;2023-05-07T09:28:40;18.40;49.30
13482;DHT22;6813;60.352;15.746;2023-05-07T09:31:08;18.50;50.20
13482;DHT22;6813;60.352;15.746;2023-05-07T09:33:34;18.50;51.70
13482;DHT22;6813;60.352;15.746;2023-05-07T09:36:07;18.40;47.90
13482;DHT22;6813;60.352;15.746;2023-05-07T09:38:33;18.30;49.50
13482;DHT22;6813;60.352;15.746;2023-05-07T09:41:08;18.00;50.20
13482;DHT22;6813;60.352;15.746;2023-05-07T09:43:35;18.10;50.30
13482;DHT22;6813;60.352;15.746;2023-05-07T09:46:15;18.10;52.50
13482;DHT22;6813;60.352;15.746;2023-05-07T09:48:43;18.40;51.20
13482;DHT22;6813;60.352;15.746;2023-05-07T09:51:25;18.60;50.70
13482;DHT22;6813;60.352;15.746;2023-05-07T09:53:53;18.60;48.10
13482;DHT22;6813;60.352;15.746;2023-05-07T09:56:19;18.80;50.80
13482;DHT22;6813;60.352;15.746;2023-05-07T09:58:46;18.80;46.50
13482;DHT22;6813;60.352;15.746;2023-05-07T10:01:13;18.30;49.90
13482;DHT22;6813;60.352;15.746;2023-05-07T10:03:43;18.30;49.60
13482;DHT22;6813;60.352;15.746;2023-05-07T10:06:10;17.90;43.70
13482;DHT22;6813;60.352;15.746;2023-05-07T10:08:37;16.70;44.20
13482;DHT22;6813;60.352;15.746;2023-05-07T10:11:04;16.40;50.90
13482;DHT22;6813;60.352;15.746;2023-05-07T10:13:32;16.10;50.40
13482;DHT22;6813;60.352;15.746;2023-05-07T10:15:58;16.30;50.80
13482;DHT22;6813;60.352;15.746;2023-05-07T10:18:25;16.60;50.10
13482;DHT22;6813;60.352;15.746;2023-05-07T10:20:59;16.90;51.80
13482;DHT22;6813;60.352;15.746;2023-05-07T10:23:27;17.20;50.40
13482;DHT22;6813;60.352;15.746;2023-05-07T10:25:54;17.50;49.70
13482;DHT22;6813;60.352;15.746;2023-05-07T10:28:22;17.50;50.90
13482;DHT22;6813;60.352;15.746;2023-05-07T10:33:27;17.00;52.40
13482;DHT22;6813;60.352;15.746;2023-05-07T10:35:58;16.50;47.90
13482;DHT22;6813;60.352;15.746;2023-05-07T10:38:26;16.50;52.90
13482;DHT22;6813;60.352;15.746;2023-05-07T10:40:52;16.30;48.40
13482;DHT22;6813;60.352;15.746;2023-05-07T10:43:18;16.10;52.50
13482;DHT22;6813;60.352;15.746;2023-05-07T10:45:44;16.50;51.10
13482;DHT22;6813;60.352;15.746;2023-05-07T10:48:29;15.80;48.40
13482;DHT22;6813;60.352;15.746;2023-05-07T10:51:20;15.60;52.50
13482;DHT22;6813;60.352;15.746;2023-05-07T10:53:46;16.10;53.80
13482;DHT22;6813;60.352;15.746;2023-05-07T10:58:44;15.90;53.60
13482;DHT22;6813;60.352;15.746;2023-05-07T11:01:10;16.30;55.70
13482;DHT22;6813;60.352;15.746;2023-05-07T11:04:14;16.70;53.40
13482;DHT22;6813;60.352;15.746;2023-05-07T11:06:40;17.20;54.30
13482;DHT22;6813;60.352;15.746;2023-05-07T11:09:06;17.50;52.80
13482;DHT22;6813;60.352;15.746;2023-05-07T11:11:48;17.60;52.20
13482;DHT22;6813;60.352;15.746;2023-05-07T11:14:43;16.90;48.90
13482;DHT22;6813;60.352;15.746;2023-05-07T11:17:09;16.60;48.60
13482;DHT22;6813;60.352;15.746;2023-05-07T11:19:55;15.80;49.90
13482;DHT22;6813;60.352;15.746;2023-05-07T11:25:00;15.90;50.50
13482;DHT22;6813;60.352;15.746;2023-05-07T11:27:26;16.30;53.30
13482;DHT22;6813;60.352;15.746;2023-05-07T11:29:52;16.70;53.70
13482;DHT22;6813;60.352;15.746;2023-05-07T11:32:28;17.00;53.50
13482;DHT22;6813;60.352;15.746;2023-05-07T11:34:55;17.30;51.80
13482;DHT22;6813;60.352;15.746;2023-05-07T11:37:23;17.30;49.10
13482;DHT22;6813;60.352;15.746;2023-05-07T11:39:50;17.30;52.20
13482;DHT22;6813;60.352;15.746;2023-05-07T11:42:29;17.00;47.20
13482;DHT22;6813;60.352;15.746;2023-05-07T11:44:55;16.80;47.90
13482;DHT22;6813;60.352;15.746;2023-05-07T11:47:21;16.20;47.70
13482;DHT22;6813;60.352;15.746;2023-05-07T11:49:52;16.20;52.20
13482;DHT22;6813;60.352;15.746;2023-05-07T11:52:19;16.20;49.20
13482;DHT22;6813;60.352;15.746;2023-05-07T11:54:53;16.20;51.50
13482;DHT22;6813;60.352;15.746;2023-05-07T11:57:20;16.20;50.90
13482;DHT22;6813;60.352;15.746;2023-05-07T11:59:46;15.90;49.10
13482;DHT22;6813;60.352;15.746;2023-05-07T12:02:17;15.80;48.90
13482;DHT22;6813;60.352;15.746;2023-05-07T12:04:43;15.80;51.20
13482;DHT22;6813;60.352;15.746;2023-05-07T12:07:15;15.60;49.30
13482;DHT22;6813;60.352;15.746;2023-05-07T12:09:41;15.90;53.60
13482;DHT22;6813;60.352;15.746;2023-05-07T12:12:07;16.00;51.10
13482;DHT22;6813;60.352;15.746;2023-05-07T12:14:38;16.00;53.70
13482;DHT22;6813;60.352;15.746;2023-05-07T12:17:05;16.20;52.60
13482;DHT22;6813;60.352;15.746;2023-05-07T12:19:31;16.40;49.80
13482;DHT22;6813;60.352;15.746;2023-05-07T12:21:57;16.40;48.40
13482;DHT22;6813;60.352;15.746;2023-05-07T12:24:23;16.20;52.80
13482;DHT22;6813;60.352;15.746;2023-05-07T12:26:49;16.40;51.40
13482;DHT22;6813;60.352;15.746;2023-05-07T12:29:15;16.60;51.30
13482;DHT22;6813;60.352;15.746;2023-05-07T12:31:41;16.80;49.90
13482;DHT22;6813;60.352;15.746;2023-05-07T12:34:07;17.10;51.10
13482;DHT22;6813;60.352;15.746;2023-05-07T12:36:39;16.70;46.80
13482;DHT22;6813;60.352;15.746;2023-05-07T12:39:06;16.80;51.30
13482;DHT22;6813;60.352;15.746;2023-05-07T12:41:51;16.90;51.40
13482;DHT22;6813;60.352;15.746;2023-05-07T12:44:17;17.00;49.00
13482;DHT22;6813;60.352;15.746;2023-05-07T12:46:43;17.20;50.50
13482;DHT22;6813;60.352;15.746;2023-05-07T12:49:09;17.30;49.60
13482;DHT22;6813;60.352;15.746;2023-05-07T12:51:35;17.20;46.80
13482;DHT22;6813;60.352;15.746;2023-05-07T12:54:01;16.70;47.40
13482;DHT22;6813;60.352;15.746;2023-05-07T12:56:27;16.80;49.40
13482;DHT22;6813;60.352;15.746;2023-05-07T12:58:57;17.00;50.80
13482;DHT22;6813;60.352;15.746;2023-05-07T13:01:29;17.20;49.50
13482;DHT22;6813;60.352;15.746;2023-05-07T13:03:55;17.00;46.20
13482;DHT22;6813;60.352;15.746;2023-05-07T13:06:21;17.00;45.50
13482;DHT22;6813;60.352;15.746;2023-05-07T13:08:47;17.10;49.00
13482;DHT22;6813;60.352;15.746;2023-05-07T13:11:13;16.70;47.40
13482;DHT22;6813;60.352;15.746;2023-05-07T13:13:40;16.80;52.00
13482;DHT22;6813;60.352;15.746;2023-05-07T13:16:09;17.10;51.40
13482;DHT22;6813;60.352;15.746;2023-05-07T13:18:37;17.20;46.90
13482;DHT22;6813;60.352;15.746;2023-05-07T13:21:03;17.30;48.00
13482;DHT22;6813;60.352;15.746;2023-05-07T13:23:29;17.20;48.80
13482;DHT22;6813;60.352;15.746;2023-05-07T13:25:55;16.90;44.60
13482;DHT22;6813;60.352;15.746;2023-05-07T13:28:25;16.80;47.00
13482;DHT22;6813;60.352;15.746;2023-05-07T13:30:52;16.50;45.70
13482;DHT22;6813;60.352;15.746;2023-05-07T13:33:18;16.30;47.10
13482;DHT22;6813;60.352;15.746;2023-05-07T13:35:44;16.50;48.90
13482;DHT22;6813;60.352;15.746;2023-05-07T13:38:10;16.70;51.70
13482;DHT22;6813;60.352;15.746;2023-05-07T13:40:36;17.00;49.80
13482;DHT22;6813;60.352;15.746;2023-05-07T13:43:01;17.10;50.20
13482;DHT22;6813;60.352;15.746;2023-05-07T13:45:28;17.10;47.40
13482;DHT22;6813;60.352;15.746;2023-05-07T13:47:55;16.20;45.90
13482;DHT22;6813;60.352;15.746;2023-05-07T13:50:22;15.90;51.10
13482;DHT22;6813;60.352;15.746;2023-05-07T13:52:47;16.20;50.50
13482;DHT22;6813;60.352;15.746;2023-05-07T13:55:23;16.50;52.40
13482;DHT22;6813;60.352;15.746;2023-05-07T13:58:00;16.60;50.80
13482;DHT22;6813;60.352;15.746;2023-05-07T14:00:28;16.80;50.90
13482;DHT22;6813;60.352;15.746;2023-05-07T14:02:54;16.90;47.20
13482;DHT22;6813;60.352;15.746;2023-05-07T14:05:20;16.90;49.00
13482;DHT22;6813;60.352;15.746;2023-05-07T14:07:49;16.70;51.60
13482;DHT22;6813;60.352;15.746;2023-05-07T14:10:18;16.90;53.80
13482;DHT22;6813;60.352;15.746;2023-05-07T14:12:44;17.00;52.60
13482;DHT22;6813;60.352;15.746;2023-05-07T14:15:11;17.10;48.60
13482;DHT22;6813;60.352;15.746;2023-05-07T14:17:37;17.10;50.00
13482;DHT22;6813;60.352;15.746;2023-05-07T14:20:03;17.30;53.60
13482;DHT22;6813;60.352;15.746;2023-05-07T14:22:28;16.90;47.70
13482;DHT22;6813;60.352;15.746;2023-05-07T14:24:54;16.30;46.10
13482;DHT22;6813;60.352;15.746;2023-05-07T14:27:20;16.10;46.40
13482;DHT22;6813;60.352;15.746;2023-05-07T14:29:46;16.10;52.60
13482;DHT22;6813;60.352;15.746;2023-05-07T14:32:17;16.40;50.60
13482;DHT22;6813;60.352;15.746;2023-05-07T14:34:44;16.50;50.70
13482;DHT22;6813;60.352;15.746;2023-05-07T14:37:09;16.60;47.50
13482;DHT22;6813;60.352;15.746;2023-05-07T14:39:35;16.30;48.30
13482;DHT22;6813;60.352;15.746;2023-05-07T14:42:01;16.30;50.00
13482;DHT22;6813;60.352;15.746;2023-05-07T14:44:27;16.40;51.10
13482;DHT22;6813;60.352;15.746;2023-05-07T14:46:53;16.50;52.00
13482;DHT22;6813;60.352;15.746;2023-05-07T14:49:19;16.40;49.80
13482;DHT22;6813;60.352;15.746;2023-05-07T14:51:46;16.50;50.80
13482;DHT22;6813;60.352;15.746;2023-05-07T14:54:15;16.50;47.90
13482;DHT22;6813;60.352;15.746;2023-05-07T14:56:41;16.50;50.70
13482;DHT22;6813;60.352;15.746;2023-05-07T14:59:07;16.60;48.60
13482;DHT22;6813;60.352;15.746;2023-05-07T15:01:34;16.60;49.90
13482;DHT22;6813;60.352;15.746;2023-05-07T15:04:03;16.60;51.00
13482;DHT22;6813;60.352;15.746;2023-05-07T15:06:29;16.50;50.70
13482;DHT22;6813;60.352;15.746;2023-05-07T15:08:55;16.70;52.00
13482;DHT22;6813;60.352;15.746;2023-05-07T15:11:21;16.70;47.50
13482;DHT22;6813;60.352;15.746;2023-05-07T15:13:46;16.80;50.00
13482;DHT22;6813;60.352;15.746;2023-05-07T15:16:13;16.80;46.60
13482;DHT22;6813;60.352;15.746;2023-05-07T15:18:38;16.80;46.30
13482;DHT22;6813;60.352;15.746;2023-05-07T15:21:04;16.20;48.20
13482;DHT22;6813;60.352;15.746;2023-05-07T15:23:30;16.30;51.40
13482;DHT22;6813;60.352;15.746;2023-05-07T15:25:56;16.50;51.50
13482;DHT22;6813;60.352;15.746;2023-05-07T15:28:22;16.70;55.80
13482;DHT22;6813;60.352;15.746;2023-05-07T15:30:48;16.80;54.10
13482;DHT22;6813;60.352;15.746;2023-05-07T15:33:13;16.80;50.80
13482;DHT22;6813;60.352;15.746;2023-05-07T15:35:39;16.70;44.60
13482;DHT22;6813;60.352;15.746;2023-05-07T15:38:05;16.20;44.50
13482;DHT22;6813;60.352;15.746;2023-05-07T15:40:31;15.60;44.90